Cairo, Illinois
Current Conditions -  °F | °C
As of 2:55 AM on Sunday 23 Nov 2014 (Local Time) from KCIR Reporting Station
Scattered Clouds Scattered Clouds  
Wind Chill: 56°   Ceiling: Unl
Heat Index: 56°   Visibility: 10mi
Dew Point: 47°   Wind: 9mph
Humidity: 70%   Direction: 150°SSE
Pressure: 29.87"   Gusts: NA
Location:  37.01°N, 89.18°W
Report Text: KCIR 230855Z AUTO 15008KT 10SM SCT048 14/08 A2987 RMK AO2 T01360082
Loading
Personal Weather Stations






























Interactive Weather Map New forecast layout! Learn more

10-Day Weather Forecast

Advertisements
Track Severe Weather on mobile